createdAt,value
2023-03-11T00:00:36.444Z,99.90
2023-03-11T00:03:05.444Z,99.90
2023-03-11T00:05:37.082Z,99.90
2023-03-11T00:08:06.197Z,99.90
2023-03-11T00:10:37.123Z,99.90
2023-03-11T00:13:05.803Z,99.90
2023-03-11T00:15:33.639Z,99.90
2023-03-11T00:18:01.062Z,99.90
2023-03-11T00:20:34.950Z,99.90
2023-03-11T00:23:03.232Z,99.90
2023-03-11T00:25:31.873Z,99.90
2023-03-11T00:27:59.640Z,99.90
2023-03-11T00:30:27.692Z,99.90
2023-03-11T00:32:57.179Z,99.90
2023-03-11T00:35:33.584Z,99.90
2023-03-11T00:38:04.781Z,99.90
2023-03-11T00:40:33.820Z,99.90
2023-03-11T00:43:03.910Z,99.90
2023-03-11T00:45:32.237Z,99.90
2023-03-11T00:47:59.881Z,99.90
2023-03-11T00:50:30.858Z,99.90
2023-03-11T00:52:59.080Z,99.90
2023-03-11T00:55:28.845Z,99.90
2023-03-11T00:57:59.866Z,99.90
2023-03-11T01:00:31.627Z,99.90
2023-03-11T01:02:59.560Z,99.90
2023-03-11T01:05:30.034Z,99.90
2023-03-11T01:07:57.824Z,99.90
2023-03-11T01:10:25.964Z,99.90
2023-03-11T01:12:53.291Z,99.90
2023-03-11T01:15:28.346Z,99.90
2023-03-11T01:17:55.714Z,99.90
2023-03-11T01:20:22.973Z,99.90
2023-03-11T01:22:50.294Z,99.90
2023-03-11T01:25:20.237Z,99.90
2023-03-11T01:27:47.733Z,99.90
2023-03-11T01:30:21.937Z,99.90
2023-03-11T01:32:50.169Z,99.90
2023-03-11T01:35:20.309Z,99.90
2023-03-11T01:37:47.864Z,99.90
2023-03-11T01:40:29.385Z,99.90
2023-03-11T01:43:00.175Z,99.90
2023-03-11T01:46:04.225Z,99.90
2023-03-11T01:48:32.922Z,99.90
2023-03-11T01:51:00.612Z,99.90
2023-03-11T01:53:28.085Z,99.90
2023-03-11T01:55:55.673Z,99.90
2023-03-11T01:58:27.607Z,99.90
2023-03-11T02:00:56.527Z,99.90
2023-03-11T02:03:36.969Z,99.90
2023-03-11T02:06:09.322Z,99.90
2023-03-11T02:08:37.511Z,99.90
2023-03-11T02:11:10.092Z,99.90
2023-03-11T02:13:39.213Z,99.90
2023-03-11T02:16:07.157Z,99.90
2023-03-11T02:18:34.501Z,99.90
2023-03-11T02:21:18.855Z,99.90
2023-03-11T02:24:17.163Z,99.90
2023-03-11T02:26:54.014Z,99.90
2023-03-11T02:29:22.975Z,99.90
2023-03-11T02:34:47.808Z,99.90
2023-03-11T02:37:17.528Z,99.90
2023-03-11T02:39:54.735Z,99.90
2023-03-11T02:42:28.394Z,99.90
2023-03-11T02:45:07.920Z,99.90
2023-03-11T02:47:37.826Z,99.90
2023-03-11T02:50:09.584Z,99.90
2023-03-11T02:52:37.230Z,99.90
2023-03-11T03:02:53.139Z,99.90
2023-03-11T03:05:29.557Z,99.90
2023-03-11T03:08:05.886Z,99.90
2023-03-11T03:10:33.416Z,99.90
2023-03-11T03:13:01.012Z,99.90
2023-03-11T03:15:28.635Z,99.90
2023-03-11T03:17:56.104Z,99.90
2023-03-11T03:20:23.678Z,99.90
2023-03-11T03:22:55.563Z,99.90
2023-03-11T03:25:28.504Z,99.90
2023-03-11T03:28:21.803Z,99.90
2023-03-11T03:33:32.802Z,99.90
2023-03-11T03:36:04.524Z,99.90
2023-03-11T03:38:40.434Z,99.90
2023-03-11T03:41:16.940Z,99.90
2023-03-11T03:43:45.453Z,99.90
2023-03-11T04:02:44.774Z,99.90
2023-03-11T04:05:22.194Z,99.90
2023-03-11T04:07:49.734Z,99.90
2023-03-11T04:10:18.119Z,99.90
2023-03-11T04:12:45.523Z,99.90
2023-03-11T04:15:13.254Z,99.90
2023-03-11T04:17:43.591Z,99.90
2023-03-11T04:20:12.174Z,99.90
2023-03-11T04:22:40.048Z,99.90
2023-03-11T04:25:08.477Z,99.90
2023-03-11T04:27:35.775Z,99.90
2023-03-11T04:30:07.598Z,99.90
2023-03-11T04:32:35.427Z,99.90
2023-03-11T04:35:05.634Z,99.90
2023-03-11T04:37:33.908Z,99.90
2023-03-11T04:40:02.020Z,99.90
2023-03-11T04:42:30.486Z,99.90
2023-03-11T04:44:58.421Z,99.90
2023-03-11T04:47:29.015Z,99.90
2023-03-11T04:49:56.658Z,99.90
2023-03-11T04:52:25.057Z,99.90
2023-03-11T04:54:53.256Z,99.90
2023-03-11T04:57:20.661Z,99.90
2023-03-11T04:59:48.898Z,99.90
2023-03-11T05:02:16.508Z,99.90
2023-03-11T05:04:51.797Z,99.90
2023-03-11T05:07:19.118Z,99.90
2023-03-11T05:09:47.588Z,99.90
2023-03-11T05:12:15.132Z,99.90
2023-03-11T05:14:46.959Z,99.90
2023-03-11T05:17:14.880Z,99.90
2023-03-11T05:19:43.339Z,99.90
2023-03-11T05:22:18.065Z,99.90
2023-03-11T05:24:47.119Z,99.90
2023-03-11T05:27:18.196Z,99.90
2023-03-11T05:29:48.373Z,99.90
2023-03-11T05:32:16.768Z,99.90
2023-03-11T05:34:46.443Z,99.90
2023-03-11T05:37:15.965Z,99.90
2023-03-11T05:39:44.124Z,99.90
2023-03-11T05:42:12.669Z,99.90
2023-03-11T05:44:42.143Z,99.90
2023-03-11T05:47:09.838Z,99.90
2023-03-11T05:49:37.414Z,99.90
2023-03-11T05:52:05.725Z,99.90
2023-03-11T05:54:34.101Z,99.90
2023-03-11T05:57:01.705Z,99.90
2023-03-11T05:59:30.186Z,99.90
2023-03-11T06:02:02.312Z,99.90
2023-03-11T06:04:30.052Z,99.90
2023-03-11T06:06:58.306Z,99.90
2023-03-11T06:09:29.031Z,99.90
2023-03-11T06:11:56.919Z,99.90
2023-03-11T06:14:31.853Z,99.90
2023-03-11T06:17:01.962Z,99.90
2023-03-11T06:19:29.488Z,99.90
2023-03-11T06:21:56.926Z,99.90
2023-03-11T06:24:24.418Z,99.90
2023-03-11T06:26:52.939Z,99.90
2023-03-11T06:29:24.318Z,99.90
2023-03-11T06:31:51.895Z,99.90
2023-03-11T06:34:19.488Z,99.90
2023-03-11T06:36:47.038Z,99.90
2023-03-11T06:39:15.700Z,99.90
2023-03-11T06:41:45.490Z,99.90
2023-03-11T06:44:14.123Z,99.90
2023-03-11T06:46:42.797Z,99.90
2023-03-11T06:49:10.204Z,99.90
2023-03-11T06:51:39.962Z,99.90
2023-03-11T06:54:08.076Z,99.90
2023-03-11T06:56:35.617Z,99.90
2023-03-11T06:59:06.637Z,99.90
2023-03-11T07:01:35.347Z,99.90
2023-03-11T07:04:05.780Z,99.90
2023-03-11T07:06:34.845Z,99.90
2023-03-11T07:09:08.062Z,99.90
2023-03-11T07:11:39.238Z,99.90
2023-03-11T07:14:14.286Z,99.90
2023-03-11T07:16:45.694Z,99.90
2023-03-11T07:19:22.473Z,99.90
2023-03-11T07:21:49.682Z,99.90
2023-03-11T07:24:16.873Z,99.90
2023-03-11T07:26:44.661Z,99.90
2023-03-11T07:29:12.129Z,99.90
2023-03-11T07:31:39.502Z,99.90
2023-03-11T07:34:11.685Z,99.90
2023-03-11T07:36:42.890Z,99.90
2023-03-11T07:39:17.717Z,99.90
2023-03-11T07:41:45.542Z,99.90
2023-03-11T07:44:14.466Z,99.90
2023-03-11T07:46:42.225Z,99.90
2023-03-11T07:49:09.488Z,99.90
2023-03-11T07:51:38.260Z,99.90
2023-03-11T07:54:06.204Z,99.90
2023-03-11T07:56:35.540Z,99.90
2023-03-11T07:59:04.547Z,99.90
2023-03-11T08:01:36.533Z,99.90
2023-03-11T08:04:06.584Z,99.90
2023-03-11T08:06:36.012Z,99.90
2023-03-11T08:09:07.042Z,99.90
2023-03-11T08:11:36.797Z,99.90
2023-03-11T08:14:04.762Z,99.90
2023-03-11T08:16:32.103Z,99.90
2023-03-11T08:18:59.362Z,99.90
2023-03-11T08:21:29.207Z,99.90
2023-03-11T08:24:02.706Z,99.90
2023-03-11T08:26:31.869Z,99.90
2023-03-11T08:28:59.414Z,99.90
2023-03-11T08:31:30.598Z,99.90
2023-03-11T08:34:01.305Z,99.90
2023-03-11T08:36:28.828Z,99.90
2023-03-11T08:38:56.055Z,99.90
2023-03-11T08:41:23.486Z,99.90
2023-03-11T08:43:52.136Z,99.90
2023-03-11T08:46:28.393Z,99.90
2023-03-11T08:48:58.626Z,99.90
2023-03-11T08:51:28.006Z,99.90
2023-03-11T08:53:55.240Z,99.90
2023-03-11T08:56:22.635Z,99.90
2023-03-11T08:58:50.805Z,99.90
2023-03-11T09:01:20.062Z,99.90
2023-03-11T09:03:47.562Z,99.90
2023-03-11T09:06:16.498Z,99.90
2023-03-11T09:08:45.338Z,99.90
2023-03-11T09:11:14.774Z,99.90
2023-03-11T09:13:43.124Z,99.90
2023-03-11T09:16:15.603Z,99.90
2023-03-11T09:18:42.903Z,99.90
2023-03-11T09:21:10.555Z,99.90
2023-03-11T09:23:37.801Z,99.90
2023-03-11T09:26:05.217Z,99.90
2023-03-11T09:28:32.637Z,99.90
2023-03-11T09:30:59.858Z,99.90
2023-03-11T09:33:27.411Z,99.90
2023-03-11T09:35:54.574Z,99.90
2023-03-11T09:38:21.849Z,99.90
2023-03-11T09:40:58.441Z,99.90
2023-03-11T09:43:37.834Z,99.90
2023-03-11T09:46:30.853Z,99.90
2023-03-11T09:49:15.030Z,99.90
2023-03-11T09:52:02.186Z,99.90
2023-03-11T09:54:34.640Z,99.90
2023-03-11T09:57:04.226Z,99.90
2023-03-11T09:59:33.578Z,99.90
2023-03-11T10:02:01.210Z,99.90
2023-03-11T10:04:50.629Z,99.90
2023-03-11T10:07:22.742Z,99.90
2023-03-11T10:09:59.268Z,99.90
2023-03-11T10:12:44.266Z,99.90
2023-03-11T10:15:48.552Z,99.90
2023-03-11T10:18:37.035Z,99.90
2023-03-11T10:21:35.000Z,99.90
2023-03-11T10:24:36.509Z,99.90
2023-03-11T10:27:16.208Z,99.90
2023-03-11T10:30:15.645Z,99.90
2023-03-11T10:32:55.214Z,99.90
2023-03-11T10:35:44.517Z,99.90
2023-03-11T10:38:17.527Z,99.90
2023-03-11T10:40:48.329Z,99.90
2023-03-11T10:43:28.691Z,99.90
2023-03-11T10:45:55.865Z,99.90
2023-03-11T10:48:25.276Z,99.90
2023-03-11T10:50:58.672Z,99.90
2023-03-11T10:53:25.879Z,99.90
2023-03-11T10:55:55.515Z,99.90
2023-03-11T10:58:26.076Z,99.90
2023-03-11T11:01:26.567Z,99.90
2023-03-11T11:03:55.831Z,99.90
2023-03-11T11:06:36.108Z,99.90
2023-03-11T11:09:26.859Z,99.00
2023-03-11T11:12:00.742Z,99.90
2023-03-11T11:14:45.970Z,99.20
2023-03-11T11:17:19.725Z,99.90
2023-03-11T11:19:49.987Z,99.90
2023-03-11T11:22:20.929Z,99.90
2023-03-11T11:24:51.292Z,99.90
2023-03-11T11:27:22.554Z,99.90
2023-03-11T11:30:09.955Z,99.90
2023-03-11T11:32:37.816Z,99.90
2023-03-11T11:35:16.239Z,99.90
2023-03-11T11:37:47.255Z,99.90
2023-03-11T11:40:14.643Z,99.90
2023-03-11T11:42:46.602Z,99.90
2023-03-11T11:45:19.130Z,99.90
2023-03-11T11:47:50.885Z,99.90
2023-03-11T11:50:38.180Z,99.90
2023-03-11T11:53:34.865Z,99.90
2023-03-11T11:56:02.387Z,99.90
2023-03-11T11:58:31.200Z,99.90
2023-03-11T12:01:16.126Z,99.90
2023-03-11T12:04:20.398Z,99.90
2023-03-11T12:07:09.124Z,99.90
2023-03-11T12:09:52.002Z,99.90
2023-03-11T12:12:47.459Z,99.90
2023-03-11T12:15:30.467Z,99.90
2023-03-11T12:18:04.250Z,99.90
2023-03-11T12:20:43.026Z,99.90
2023-03-11T12:23:24.674Z,99.90
2023-03-11T12:26:14.235Z,99.40
2023-03-11T12:28:53.790Z,99.00
2023-03-11T12:31:23.315Z,99.10
2023-03-11T12:34:04.339Z,99.90
2023-03-11T12:36:37.468Z,99.00
2023-03-11T12:39:07.591Z,99.70
2023-03-11T12:41:41.934Z,99.10
2023-03-11T12:44:30.252Z,99.90
2023-03-11T12:47:21.550Z,99.90
2023-03-11T12:49:51.853Z,99.90
2023-03-11T12:52:22.999Z,99.90
2023-03-11T12:55:16.082Z,99.90
2023-03-11T12:57:55.973Z,99.90
2023-03-11T13:00:42.933Z,99.70
2023-03-11T13:03:46.181Z,99.70
2023-03-11T13:06:31.973Z,99.90
2023-03-11T13:09:00.597Z,99.90
2023-03-11T13:11:33.835Z,99.90
2023-03-11T13:14:30.575Z,99.50
2023-03-11T13:17:25.579Z,99.30
2023-03-11T13:19:59.639Z,99.90
2023-03-11T13:22:56.174Z,98.70
2023-03-11T13:25:52.214Z,98.80
2023-03-11T13:28:47.377Z,98.40
2023-03-11T13:31:38.409Z,98.30
2023-03-11T13:34:22.141Z,99.80
2023-03-11T13:37:06.554Z,99.90
2023-03-11T13:40:13.974Z,98.40
2023-03-11T13:42:50.581Z,98.40
2023-03-11T13:45:35.912Z,99.30
2023-03-11T13:48:21.020Z,99.70
2023-03-11T13:50:53.676Z,99.10
2023-03-11T13:53:36.137Z,99.10
2023-03-11T13:56:04.324Z,99.10
2023-03-11T13:58:31.510Z,99.20
2023-03-11T14:01:01.154Z,99.00
2023-03-11T14:03:41.851Z,99.40
2023-03-11T14:06:19.788Z,99.00
2023-03-11T14:08:55.559Z,99.20
2023-03-11T14:11:29.429Z,99.70
2023-03-11T14:13:56.655Z,99.00
2023-03-11T14:16:35.122Z,99.60
2023-03-11T14:19:19.807Z,99.70
2023-03-11T14:21:54.732Z,99.10
2023-03-11T14:24:31.549Z,99.10
2023-03-11T14:27:02.434Z,98.90
2023-03-11T14:29:38.242Z,99.00
2023-03-11T14:32:28.465Z,99.00
2023-03-11T14:34:56.498Z,98.80
2023-03-11T14:37:23.729Z,98.70
2023-03-11T14:39:53.926Z,99.00
2023-03-11T14:42:40.548Z,98.80
2023-03-11T14:45:12.888Z,99.30
2023-03-11T14:47:54.890Z,98.60
2023-03-11T14:50:25.742Z,98.20
2023-03-11T14:53:09.061Z,98.20
2023-03-11T14:55:43.125Z,97.80
2023-03-11T14:58:17.000Z,98.40
2023-03-11T15:00:50.860Z,98.60
2023-03-11T15:03:25.287Z,98.70
2023-03-11T15:06:04.005Z,97.80
2023-03-11T15:08:37.560Z,97.20
2023-03-11T15:11:10.868Z,99.20
2023-03-11T15:13:43.606Z,98.60
2023-03-11T15:16:33.550Z,99.10
2023-03-11T15:19:22.863Z,99.30
2023-03-11T15:21:54.267Z,98.70
2023-03-11T15:24:25.876Z,99.20
2023-03-11T15:27:00.167Z,98.80
2023-03-11T15:29:29.517Z,98.80
2023-03-11T15:31:57.349Z,99.50
2023-03-11T15:34:32.513Z,98.80
2023-03-11T15:37:03.710Z,99.00
2023-03-11T15:39:31.016Z,99.40
2023-03-11T15:42:03.400Z,98.80
2023-03-11T15:45:05.078Z,99.40
2023-03-11T15:47:32.356Z,99.10
2023-03-11T15:50:03.342Z,99.30
2023-03-11T15:52:30.498Z,99.80
2023-03-11T15:54:57.918Z,99.90
2023-03-11T15:57:28.193Z,99.80
2023-03-11T15:59:58.327Z,99.90
2023-03-11T16:02:28.831Z,99.90
2023-03-11T16:04:57.216Z,99.90
2023-03-11T16:07:38.690Z,99.90
2023-03-11T16:10:08.702Z,99.90
2023-03-11T16:12:36.115Z,99.90
2023-03-11T16:15:04.637Z,99.90
2023-03-11T16:17:48.609Z,99.90
2023-03-11T16:20:17.733Z,99.90
2023-03-11T16:22:45.726Z,99.90
2023-03-11T16:25:23.645Z,99.90
2023-03-11T16:27:53.219Z,99.90
2023-03-11T16:30:21.239Z,99.90
2023-03-11T16:32:48.559Z,99.90
2023-03-11T16:35:15.957Z,99.90
2023-03-11T16:37:43.556Z,99.90
2023-03-11T16:40:14.562Z,99.90
2023-03-11T16:42:43.545Z,99.90
2023-03-11T16:45:12.778Z,99.90
2023-03-11T16:47:40.296Z,99.90
2023-03-11T16:50:08.680Z,99.90
2023-03-11T16:52:36.001Z,99.90
2023-03-11T16:55:03.422Z,99.90
2023-03-11T16:57:30.598Z,99.90
2023-03-11T16:59:58.408Z,99.90
2023-03-11T17:02:25.828Z,99.90
2023-03-11T17:04:53.212Z,99.90
2023-03-11T17:07:23.992Z,99.90
2023-03-11T17:09:51.654Z,99.90
2023-03-11T17:12:19.162Z,99.90
2023-03-11T17:14:46.578Z,99.90
2023-03-11T17:17:14.086Z,99.90
2023-03-11T17:19:41.580Z,99.90
2023-03-11T17:22:08.824Z,99.90
2023-03-11T17:24:36.695Z,99.90
2023-03-11T17:27:04.573Z,99.90
2023-03-11T17:29:33.681Z,99.90
2023-03-11T17:32:01.981Z,99.90
2023-03-11T17:34:29.348Z,99.90
2023-03-11T17:36:57.583Z,99.90
2023-03-11T17:39:24.745Z,99.90
2023-03-11T17:41:52.074Z,99.90
2023-03-11T17:44:19.267Z,99.90
2023-03-11T17:46:46.483Z,99.90
2023-03-11T17:49:14.979Z,99.90
2023-03-11T17:51:42.394Z,99.90
2023-03-11T17:54:09.778Z,99.90
2023-03-11T17:56:37.200Z,99.90
2023-03-11T17:59:04.351Z,99.90
2023-03-11T18:01:31.986Z,99.90
2023-03-11T18:03:59.386Z,99.90
2023-03-11T18:06:27.337Z,99.90
2023-03-11T18:08:55.219Z,99.90
2023-03-11T18:11:25.897Z,99.90
2023-03-11T18:13:53.981Z,99.90
2023-03-11T18:16:27.890Z,99.90
2023-03-11T18:18:57.028Z,99.90
2023-03-11T18:21:26.953Z,99.90
2023-03-11T18:23:57.269Z,99.90
2023-03-11T18:26:25.865Z,99.90
2023-03-11T18:28:54.226Z,99.90
2023-03-11T18:31:23.873Z,99.90
2023-03-11T18:33:57.394Z,99.90
2023-03-11T18:36:31.084Z,99.90
2023-03-11T18:38:59.816Z,99.90
2023-03-11T18:41:30.806Z,99.90
2023-03-11T18:43:58.383Z,99.90
2023-03-11T18:46:28.368Z,99.90
2023-03-11T18:48:57.738Z,99.90
2023-03-11T18:51:26.033Z,99.90
2023-03-11T18:53:53.319Z,99.90
2023-03-11T18:56:21.107Z,99.90
2023-03-11T18:58:48.390Z,99.90
2023-03-11T19:01:18.950Z,99.90
2023-03-11T19:03:51.339Z,99.90
2023-03-11T19:06:18.686Z,99.90
2023-03-11T19:08:45.960Z,99.90
2023-03-11T19:11:15.903Z,99.90
2023-03-11T19:13:47.707Z,99.90
2023-03-11T19:16:19.873Z,99.90
2023-03-11T19:18:47.816Z,99.90
2023-03-11T19:21:16.372Z,99.90
2023-03-11T19:23:44.899Z,99.90
2023-03-11T19:26:12.349Z,99.90
2023-03-11T19:28:39.905Z,99.90
2023-03-11T19:31:07.348Z,99.90
2023-03-11T19:33:35.275Z,99.90
2023-03-11T19:36:06.141Z,99.90
2023-03-11T19:38:34.019Z,99.90
2023-03-11T19:41:04.557Z,99.90
2023-03-11T19:43:32.077Z,99.90
2023-03-11T19:45:59.609Z,99.90
2023-03-11T19:48:26.800Z,99.90
2023-03-11T19:50:54.535Z,99.90
2023-03-11T19:53:22.670Z,99.90
2023-03-11T19:55:55.737Z,99.90
2023-03-11T19:58:24.520Z,99.90
2023-03-11T20:00:52.572Z,99.90
2023-03-11T20:03:21.725Z,99.90
2023-03-11T20:05:50.718Z,99.90
2023-03-11T20:08:20.140Z,99.90
2023-03-11T20:10:50.013Z,99.90
2023-03-11T20:13:20.217Z,99.90
2023-03-11T20:15:47.551Z,99.90
2023-03-11T20:18:15.380Z,99.90
2023-03-11T20:20:44.355Z,99.90
2023-03-11T20:23:11.979Z,99.90
2023-03-11T20:25:40.983Z,99.90
2023-03-11T20:28:08.680Z,99.90
2023-03-11T20:30:38.468Z,99.90
2023-03-11T20:33:06.207Z,99.90
2023-03-11T20:35:34.134Z,99.90
2023-03-11T20:38:02.716Z,99.90
2023-03-11T20:40:30.987Z,99.90
2023-03-11T20:42:58.542Z,99.90
2023-03-11T20:45:25.888Z,99.90
2023-03-11T20:47:54.022Z,99.90
2023-03-11T20:50:22.079Z,99.90
2023-03-11T20:52:50.156Z,99.90
2023-03-11T20:55:17.566Z,99.90
2023-03-11T20:57:44.904Z,99.90
2023-03-11T21:00:13.794Z,99.90
2023-03-11T21:02:42.654Z,99.90
2023-03-11T21:05:11.364Z,99.90
2023-03-11T21:07:39.170Z,99.90
2023-03-11T21:10:10.152Z,99.90
2023-03-11T21:12:37.369Z,99.90
2023-03-11T21:15:05.349Z,99.90
2023-03-11T21:17:33.696Z,99.90
2023-03-11T21:20:00.881Z,99.90
2023-03-11T21:22:28.204Z,99.90
2023-03-11T21:24:55.762Z,99.90
2023-03-11T21:27:27.035Z,99.90
2023-03-11T21:29:56.381Z,99.90
2023-03-11T21:32:24.983Z,99.90
2023-03-11T21:34:58.983Z,99.90
2023-03-11T21:37:28.122Z,99.90
2023-03-11T21:39:55.997Z,99.90
2023-03-11T21:42:23.598Z,99.90
2023-03-11T21:44:51.411Z,99.90
2023-03-11T21:47:19.780Z,99.90
2023-03-11T21:49:47.096Z,99.90
2023-03-11T21:52:14.439Z,99.90
2023-03-11T21:54:41.636Z,99.90
2023-03-11T21:57:08.818Z,99.90
2023-03-11T21:59:35.976Z,99.90
2023-03-11T22:02:03.497Z,99.90
2023-03-11T22:04:31.737Z,99.90
2023-03-11T22:06:59.250Z,99.90
2023-03-11T22:09:26.765Z,99.90
2023-03-11T22:11:56.318Z,99.90
2023-03-11T22:14:24.277Z,99.90
2023-03-11T22:16:52.149Z,99.90
2023-03-11T22:19:19.546Z,99.90
2023-03-11T22:21:48.236Z,99.90
2023-03-11T22:24:15.984Z,99.90
2023-03-11T22:26:43.414Z,99.90
2023-03-11T22:29:13.420Z,99.90
2023-03-11T22:31:40.941Z,99.90
2023-03-11T22:34:08.132Z,99.90
2023-03-11T22:36:35.278Z,99.90
2023-03-11T22:39:04.161Z,99.90
2023-03-11T22:41:31.732Z,99.90
2023-03-11T22:43:59.037Z,99.90
2023-03-11T22:46:26.521Z,99.90
2023-03-11T22:48:53.724Z,99.90
2023-03-11T22:51:21.250Z,99.90
2023-03-11T22:53:48.410Z,99.90
2023-03-11T22:56:16.612Z,99.90
2023-03-11T22:58:43.894Z,99.90
2023-03-11T23:01:11.486Z,99.90
2023-03-11T23:03:38.928Z,99.90
2023-03-11T23:06:09.030Z,99.90
2023-03-11T23:08:36.780Z,99.90
2023-03-11T23:11:07.774Z,99.90
2023-03-11T23:13:35.854Z,99.90
2023-03-11T23:16:09.032Z,99.90
2023-03-11T23:18:37.236Z,99.90
2023-03-11T23:21:05.033Z,99.90
2023-03-11T23:23:32.192Z,99.90
2023-03-11T23:25:59.406Z,99.90
2023-03-11T23:28:26.603Z,99.90
2023-03-11T23:30:53.800Z,99.90
2023-03-11T23:33:20.971Z,99.90
2023-03-11T23:35:48.208Z,99.90
2023-03-11T23:38:15.366Z,99.90
2023-03-11T23:40:42.602Z,99.90
2023-03-11T23:43:09.761Z,99.90
2023-03-11T23:45:36.892Z,99.90
2023-03-11T23:48:04.151Z,99.90
2023-03-11T23:50:31.311Z,99.90
2023-03-11T23:52:58.575Z,99.90
2023-03-11T23:55:26.466Z,99.90
2023-03-11T23:57:53.637Z,99.90
